This is the latest recevied weather packets stored in our database for station/object TG5ALY-16. If no packets are shown the sender has not sent any weather packets the latest 10 day(s).
| Time | Temp. | Humidity | Pressure | Rain* | Wind** | Luminosity | Snow |
|---|---|---|---|---|---|---|---|
| 1777452055 | 10.56° C | 79% | 1018 hPa | 0 mm | - | - | - |
| 1777451454 | 12.22° C | 80% | 1018 hPa | 0 mm | - | - | - |
| 1777450853 | 11.67° C | 80% | 1018 hPa | 0 mm | - | - | - |
| 1777450253 | 11.11° C | 80% | 1018 hPa | 0 mm | - | - | - |
| 1777449652 | 10.56° C | 80% | 1018 hPa | 0 mm | - | - | - |
| 1777449052 | 10.56° C | 80% | 1018 hPa | 0 mm | - | - | - |
| 1777448451 | 12.78° C | 81% | 1018 hPa | 0 mm | - | - | - |
| 1777447850 | 12.78° C | 81% | 1018 hPa | 0 mm | - | - | - |
| 1777447249 | 12.22° C | 81% | 1018 hPa | 0 mm | - | - | - |
| 1777446649 | 11.67° C | 81% | 1018 hPa | 0 mm | - | - | - |
| 1777446048 | 11.11° C | 81% | 1018 hPa | 0 mm | - | - | - |
| 1777444847 | 12.22° C | 87% | 1018 hPa | 0 mm | - | - | - |
| 1777444246 | 11.67° C | 87% | 1018 hPa | 0 mm | - | - | - |
| 1777443645 | 11.11° C | 87% | 1019 hPa | 0 mm | - | - | - |
| 1777443045 | 13.33° C | 79% | 1019 hPa | 0 mm | - | - | - |
| 1777442444 | 12.78° C | 79% | 1019 hPa | 0 mm | - | - | - |
| 1777441843 | 12.22° C | 79% | 1019 hPa | 0 mm | - | - | - |
| 1777441243 | 13.33° C | 90% | 1019 hPa | 0 mm | - | - | - |
| 1777440642 | 12.78° C | 90% | 1019 hPa | 0 mm | - | - | - |
| 1777440041 | 12.22° C | 90% | 1019 hPa | 0 mm | - | - | - |
| 1777439441 | 13.89° C | 87% | 1019 hPa | 0 mm | - | - | - |
| 1777431032 | 15° C | 77% | 1019 hPa | 0 mm | - | - | - |
| 1777429831 | 14.44° C | 77% | 1019 hPa | 0 mm | - | - | - |
| 1777425626 | 15° C | 84% | 1016 hPa | 0 mm | - | - | - |
| 1777413613 | 23.33° C | 46% | 1013 hPa | 0 mm | - | - | - |
* Rain latest hour (hover to see other rain measurements)
** Current wind speed in m/s (hover to see current wind gust speed)